KTCC

Details ICAO KTCC (TCC)
Name Tucumcari Muni
Region United States
Timezone America/Denver (UTC-7.0)
Plans Departing 2
Arriving 1
Stats Elevation 4,065 ft / 1,239 m (AMSL)
Location 35.183045° -103.603324°
Runways 2
Magnetic Variation 7.149° E
Sunrise 2017-12-12 13:55:06 UTC / 2017-12-12 06:55:06 Local
Sunset 2017-12-12 23:44:18 UTC / 2017-12-12 16:44:18 Local
Advertisement - Login to hide

Runways

ID Width Length Bearing (true) Bearing (mag) Surface Threshold Offset Overrun Length
03 100 ft / 30 m 7,102 ft / 2,165 m 44.91° 37.76° Asphalt 0 ft / 0 m 0 ft / 0 m
08 60 ft / 18 m 4,590 ft / 1,399 m 90.00° 82.85° Asphalt 0 ft / 0 m 0 ft / 0 m
21 100 ft / 30 m 7,102 ft / 2,165 m 224.92° 217.77° Asphalt 0 ft / 0 m 0 ft / 0 m
26 60 ft / 18 m 4,590 ft / 1,399 m 270.01° 262.86° Asphalt 0 ft / 0 m 0 ft / 0 m

Map

Weather


0- 5 10 15 20 25 30 35+ Temperature / ° C

Clouds and Precipitation
Forecast for 2017-12-12 12:00 UTC. Updated 2 hours ago

Ground ~20,000 ft ~40,000 ft Winds

METAR

KTCC 120753Z AUTO VRB03KT 10SM CLR M02/M12 A3046 RMK AO2 SLP306 T10221122

TAF

KTCC 120522Z 1206/1306 VRB05KT P6SM SKC FM121400 24010KT P6SM SKC FM121800 24012G19KT P6SM SKC FM130000 23008KT P6SM SKC

Frequencies

Recorded 119.27 MHz ASOS
Unicom 122.95 MHz CTAF/UNICOM
Warning: Do not use this data for real-world aviation or navigation. No guarantee of current accuracy is given.